^^
Datos históricos de la estación: Murcia-Puente Tocinos
Diario Informe para Mayo 8, 2019 Unidades:  Métrico    Inglés   Ambas
Diario Semanal Mensual Anual Configurable
  Máximo: Mínimo: Media:
Temperatura: 30.7 °C 15.2 °C 23.2 °C
Punto de rocio: 15.8 °C 9.8 °C 12.8 °C
Humedad: 95% 29% 58%
Velocidad viento: 22.5km/h 0.0km/h 8.9km/h
Racha viento: 38.9km/h - -
Viento- - WSW
Presión: 1013.8 hPa 1007.6 hPa -
Precipitación: 0.0 mm    
Historical Graphs
 
 
Tabla de datos para Mayo 8, 2019
Hora Temperatura Punto de rocio Presión Viento Velocidad viento Racha viento Humedad Intensidad lluvia(por hora) Nubes
00:00 18.1 °C 15.5 °C 1013.8 hPa NNW 3.2 km/h 8.0 km/h 85% 0.0 mm CLR
00:05 17.9 °C 15.5 °C 1013.6 hPa NNW 3.2 km/h 8.0 km/h 86% 0.0 mm CLR
00:10 17.9 °C 15.5 °C 1013.6 hPa NW 4.7 km/h 3.7 km/h 86% 0.0 mm CLR
00:15 17.9 °C 15.5 °C 1013.6 hPa NNW 3.2 km/h 8.0 km/h 86% 0.0 mm CLR
00:20 17.9 °C 15.5 °C 1013.5 hPa NNE 2.9 km/h 3.9 km/h 86% 0.0 mm CLR
00:25 17.8 °C 15.6 °C 1013.5 hPa NNE 2.9 km/h   87% 0.0 mm CLR
00:29 17.8 °C 15.6 °C 1013.5 hPa NNE 2.9 km/h   87% 0.0 mm CLR
00:35 17.8 °C 15.6 °C 1013.4 hPa NNE 2.9 km/h   87% 0.0 mm CLR
00:40 17.7 °C 15.5 °C 1013.4 hPa Calm     87% 0.0 mm CLR
00:45 17.7 °C 15.5 °C 1013.4 hPa Calm   8.0 km/h 87% 0.0 mm CLR
00:50 17.7 °C 15.5 °C 1013.6 hPa NNW 3.2 km/h 8.0 km/h 87% 0.0 mm CLR
00:55 17.7 °C 15.7 °C 1013.6 hPa NNW 3.2 km/h   88% 0.0 mm CLR
01:00 17.6 °C 15.6 °C 1013.6 hPa NNW 3.2 km/h 1.6 km/h 88% 0.0 mm CLR
01:05 17.7 °C 15.7 °C 1013.6 hPa NNW 2.9 km/h 7.4 km/h 88% 0.0 mm CLR
01:10 17.6 °C 15.6 °C 1013.6 hPa NNW 3.2 km/h 4.8 km/h 88% 0.0 mm CLR
01:15 17.6 °C 15.6 °C 1013.6 hPa NW 2.9 km/h   88% 0.0 mm CLR
01:20 17.6 °C 15.6 °C 1013.6 hPa NNW 1.6 km/h 4.8 km/h 88% 0.0 mm CLR
01:25 17.6 °C 15.6 °C 1013.6 hPa NNE 1.6 km/h 1.6 km/h 88% 0.0 mm CLR
01:29 17.6 °C 15.8 °C 1013.6 hPa NNW 2.3 km/h 7.4 km/h 89% 0.0 mm CLR
01:35 17.6 °C 15.8 °C 1013.5 hPa NNW 1.6 km/h 4.8 km/h 89% 0.0 mm CLR
01:40 17.6 °C 15.8 °C 1013.5 hPa NNW 1.6 km/h   89% 0.0 mm CLR
01:45 17.6 °C 15.8 °C 1013.5 hPa North 2.3 km/h   89% 0.0 mm CLR
01:50 17.6 °C 15.8 °C 1013.4 hPa Calm     89% 0.0 mm CLR
01:55 17.5 °C 15.7 °C 1013.4 hPa Calm     89% 0.0 mm CLR
02:00 17.5 °C 15.7 °C 1013.4 hPa Calm   6.4 km/h 89% 0.0 mm CLR
02:05 17.6 °C 15.8 °C 1013.1 hPa Calm   4.8 km/h 89% 0.0 mm CLR
02:10 17.6 °C 15.6 °C 1013.1 hPa SE 2.3 km/h   88% 0.0 mm CLR
02:15 17.5 °C 15.5 °C 1013.1 hPa SE 2.3 km/h   88% 0.0 mm CLR
02:20 17.5 °C 15.5 °C 1012.9 hPa Calm   5.6 km/h 88% 0.0 mm CLR
02:25 17.5 °C 15.5 °C 1012.9 hPa Calm   6.4 km/h 88% 0.0 mm CLR
02:30 17.5 °C 15.5 °C 1012.9 hPa Calm   3.2 km/h 88% 0.0 mm CLR
02:35 17.5 °C 15.3 °C 1012.8 hPa Calm     87% 0.0 mm CLR
02:40 17.4 °C 15.2 °C 1012.8 hPa Calm     87% 0.0 mm CLR
02:45 17.4 °C 15.2 °C 1012.8 hPa Calm     87% 0.0 mm CLR
02:49 17.4 °C 15.2 °C 1012.7 hPa Calm     87% 0.0 mm CLR
02:55 17.4 °C 15.2 °C 1012.7 hPa Calm     87% 0.0 mm CLR
03:00 17.4 °C 15.1 °C 1012.7 hPa Calm   4.8 km/h 86% 0.0 mm CLR
03:05 17.4 °C 15.1 °C 1012.5 hPa Calm   5.6 km/h 86% 0.0 mm CLR
03:09 17.4 °C 15.1 °C 1012.5 hPa SSW 3.2 km/h 8.7 km/h 86% 0.0 mm CLR
03:15 17.4 °C 14.8 °C 1012.5 hPa South 3.2 km/h 9.7 km/h 85% 0.0 mm CLR
03:20 17.4 °C 14.8 °C 1012.2 hPa South 8.0 km/h 9.7 km/h 85% 0.0 mm CLR
03:25 17.4 °C 14.8 °C 1012.2 hPa SSW 6.4 km/h 7.4 km/h 85% 0.0 mm CLR
03:30 17.4 °C 15.1 °C 1012.2 hPa SSW 4.8 km/h 12.9 km/h 86% 0.0 mm CLR
03:35 17.4 °C 15.1 °C 1012.2 hPa SSW 4.8 km/h 11.3 km/h 86% 0.0 mm CLR
03:40 17.4 °C 15.1 °C 1012.2 hPa SSW 8.0 km/h 11.3 km/h 86% 0.0 mm CLR
03:45 17.4 °C 15.1 °C 1012.2 hPa SW 8.4 km/h 9.3 km/h 86% 0.0 mm CLR
03:50 17.3 °C 14.9 °C 1012.2 hPa SSW 8.0 km/h 12.9 km/h 86% 0.0 mm CLR
03:55 17.2 °C 14.8 °C 1012.2 hPa SSW 8.0 km/h 12.9 km/h 86% 0.0 mm CLR
04:00 17.2 °C 15.0 °C 1012.2 hPa SW 8.0 km/h 9.7 km/h 87% 0.0 mm CLR
04:05 17.2 °C 15.0 °C 1012.1 hPa SW 8.0 km/h 11.3 km/h 87% 0.0 mm CLR
04:10 17.1 °C 14.9 °C 1012.1 hPa SSW 5.8 km/h 11.1 km/h 87% 0.0 mm CLR
04:15 17.1 °C 14.9 °C 1012.1 hPa SSW 5.8 km/h 9.3 km/h 87% 0.0 mm CLR
04:20 17.0 °C 14.8 °C 1012.1 hPa SSW 7.6 km/h 13.0 km/h 87% 0.0 mm CLR
04:25 16.9 °C 14.7 °C 1012.1 hPa SW 7.6 km/h 13.0 km/h 87% 0.0 mm CLR
04:30 16.9 °C 14.7 °C 1012.1 hPa SSW 9.7 km/h 14.5 km/h 87% 0.0 mm CLR
04:35 16.9 °C 14.9 °C 1011.9 hPa SW 9.7 km/h 12.9 km/h 88% 0.0 mm CLR
04:40 16.9 °C 14.9 °C 1011.9 hPa SW 7.6 km/h 9.3 km/h 88% 0.0 mm CLR
04:45 16.9 °C 14.9 °C 1011.9 hPa SSW 7.6 km/h 7.4 km/h 88% 0.0 mm CLR
04:50 16.9 °C 14.9 °C 1011.9 hPa SW 4.8 km/h 11.3 km/h 88% 0.0 mm CLR
04:55 16.9 °C 14.7 °C 1011.9 hPa SW 5.8 km/h 11.1 km/h 87% 0.0 mm CLR
05:00 16.8 °C 14.6 °C 1011.9 hPa SSW 8.0 km/h 11.3 km/h 87% 0.0 mm CLR
05:05 16.8 °C 14.6 °C 1011.7 hPa SSW 7.6 km/h 9.3 km/h 87% 0.0 mm CLR
05:10 16.8 °C 14.8 °C 1011.7 hPa SSW 7.6 km/h 5.6 km/h 88% 0.0 mm CLR
05:15 16.7 °C 14.7 °C 1011.7 hPa SSW 7.6 km/h 7.4 km/h 88% 0.0 mm CLR
05:20 16.7 °C 14.7 °C 1011.6 hPa SSW 4.8 km/h 9.7 km/h 88% 0.0 mm CLR
05:25 16.7 °C 14.7 °C 1011.6 hPa SW 5.0 km/h 9.5 km/h 88% 0.0 mm CLR
05:30 16.7 °C 14.9 °C 1011.6 hPa SW 4.8 km/h 12.9 km/h 89% 0.0 mm CLR
05:35 16.7 °C 14.9 °C 1011.5 hPa SW 5.8 km/h 11.1 km/h 89% 0.0 mm CLR
05:40 16.6 °C 14.8 °C 1011.5 hPa SSW 6.9 km/h 7.4 km/h 89% 0.0 mm CLR
05:45 16.6 °C 14.8 °C 1011.5 hPa SW 6.9 km/h 7.6 km/h 89% 0.0 mm CLR
05:50 16.5 °C 14.7 °C 1011.2 hPa SSW 5.8 km/h 9.5 km/h 89% 0.0 mm CLR
05:55 16.4 °C 14.6 °C 1011.2 hPa WSW 5.8 km/h 11.1 km/h 89% 0.0 mm CLR
06:00 16.4 °C 14.6 °C 1011.2 hPa SW 8.0 km/h 14.5 km/h 89% 0.0 mm CLR
06:05 16.4 °C 14.8 °C 1011.3 hPa WSW 6.4 km/h 9.5 km/h 90% 0.0 mm CLR
06:10 16.3 °C 14.7 °C 1011.3 hPa SW 6.9 km/h 9.5 km/h 90% 0.0 mm CLR
06:15 16.2 °C 14.6 °C 1011.3 hPa SW 6.9 km/h 13.0 km/h 90% 0.0 mm CLR
06:20 16.1 °C 14.4 °C 1011.4 hPa WSW 7.6 km/h 9.3 km/h 90% 0.0 mm CLR
06:25 15.9 °C 14.3 °C 1011.4 hPa WSW 7.6 km/h 9.3 km/h 90% 0.0 mm CLR
06:30 15.8 °C 14.3 °C 1011.4 hPa SSW 6.9 km/h 9.5 km/h 91% 0.0 mm CLR
06:35 15.7 °C 14.3 °C 1011.1 hPa SW 8.0 km/h 16.1 km/h 92% 0.0 mm CLR
06:39 15.5 °C 14.2 °C 1011.1 hPa SSW 7.6 km/h 10.0 km/h 92% 0.0 mm CLR
06:45 15.4 °C 14.3 °C 1011.1 hPa SW 7.6 km/h 14.8 km/h 93% 0.0 mm CLR
06:50 15.4 °C 14.4 °C 1011.2 hPa South 9.5 km/h 13.0 km/h 94% 0.0 mm CLR
06:55 15.4 °C 14.4 °C 1011.2 hPa South 9.5 km/h 9.3 km/h 94% 0.0 mm CLR
07:00 15.4 °C 14.4 °C 1011.2 hPa SSW 8.0 km/h 16.1 km/h 94% 0.0 mm CLR
07:05 15.3 °C 14.3 °C 1011.5 hPa SW 7.6 km/h 18.5 km/h 94% 0.0 mm CLR
07:10 15.3 °C 14.3 °C 1011.5 hPa SW 9.7 km/h 19.3 km/h 94% 0.0 mm CLR
07:15 15.2 °C 14.2 °C 1011.5 hPa SW 9.7 km/h 12.9 km/h 94% 0.0 mm CLR
07:20 15.2 °C 14.2 °C 1011.5 hPa SSW 9.7 km/h 16.1 km/h 94% 0.0 mm CLR
07:25 15.2 °C 14.2 °C 1011.5 hPa SSW 8.7 km/h 11.1 km/h 94% 0.0 mm CLR
07:29 15.2 °C 14.4 °C 1011.5 hPa SSW 7.6 km/h 13.0 km/h 95% 0.0 mm CLR
07:35 15.3 °C 14.5 °C 1011.6 hPa SW 7.6 km/h 11.1 km/h 95% 0.0 mm CLR
07:40 15.3 °C 14.5 °C 1011.6 hPa SSW 8.0 km/h 19.3 km/h 95% 0.0 mm CLR
07:45 15.3 °C 14.3 °C 1011.6 hPa SSW 8.4 km/h 13.0 km/h 94% 0.0 mm CLR
07:50 15.3 °C 14.3 °C 1011.6 hPa SSW 10.0 km/h 14.8 km/h 94% 0.0 mm CLR
07:55 15.4 °C 14.4 °C 1011.6 hPa SSE 10.0 km/h 16.7 km/h 94% 0.0 mm CLR
08:00 15.4 °C 14.4 °C 1011.6 hPa South 11.3 km/h 16.1 km/h 94% 0.0 mm CLR
08:05 15.3 °C 14.3 °C 1011.7 hPa South 10.3 km/h 11.1 km/h 94% 0.0 mm CLR
08:10 15.4 °C 14.4 °C 1011.7 hPa SSW 9.7 km/h 14.5 km/h 94% 0.0 mm CLR
08:15 15.6 °C 14.6 °C 1011.7 hPa South 10.0 km/h 11.1 km/h 94% 0.0 mm CLR
08:19 15.7 °C 14.7 °C 1011.9 hPa West 7.6 km/h 9.3 km/h 94% 0.0 mm CLR
08:25 15.9 °C 14.8 °C 1011.9 hPa West 7.6 km/h 9.3 km/h 93% 0.0 mm CLR
08:30 16.1 °C 14.8 °C 1011.9 hPa WSW 4.8 km/h 9.7 km/h 92% 0.0 mm CLR
08:35 16.1 °C 14.6 °C 1011.9 hPa West 5.0 km/h 7.4 km/h 91% 0.0 mm CLR
08:40 16.4 °C 14.7 °C 1011.9 hPa SW 4.8 km/h 9.7 km/h 90% 0.0 mm CLR
08:45 16.7 °C 14.9 °C 1011.9 hPa ESE 5.0 km/h 8.4 km/h 89% 0.0 mm CLR
08:49 16.9 °C 14.9 °C 1011.8 hPa SSE 6.4 km/h 9.3 km/h 88% 0.0 mm CLR
08:55 17.1 °C 14.9 °C 1011.8 hPa SSW 6.4 km/h 7.4 km/h 87% 0.0 mm CLR
09:00 17.2 °C 14.8 °C 1011.8 hPa SSW 8.0 km/h 9.7 km/h 86% 0.0 mm CLR
09:05 17.4 °C 14.8 °C 1011.8 hPa SSW 8.0 km/h 11.3 km/h 85% 0.0 mm CLR
09:10 17.8 °C 14.9 °C 1011.8 hPa SSE 6.9 km/h 10.3 km/h 83% 0.0 mm CLR
09:15 18.1 °C 15.0 °C 1011.8 hPa SSW 6.9 km/h 11.1 km/h 82% 0.0 mm CLR
09:19 18.4 °C 15.1 °C 1011.7 hPa SW 6.9 km/h 5.6 km/h 81% 0.0 mm CLR
09:25 18.7 °C 14.8 °C 1011.7 hPa South 6.9 km/h 11.1 km/h 78% 0.0 mm CLR
09:30 18.9 °C 14.8 °C 1011.7 hPa SSW 4.8 km/h 11.3 km/h 77% 0.0 mm CLR
09:35 19.2 °C 14.9 °C 1011.6 hPa SSE 5.8 km/h 9.5 km/h 76% 0.0 mm CLR
09:40 19.4 °C 14.7 °C 1011.6 hPa SSE 6.9 km/h 10.0 km/h 74% 0.0 mm CLR
09:45 19.6 °C 14.6 °C 1011.6 hPa SSW 6.9 km/h 11.1 km/h 73% 0.0 mm CLR
09:50 19.8 °C 14.6 °C 1011.7 hPa SW 6.9 km/h 9.3 km/h 72% 0.0 mm CLR
09:55 20.2 °C 14.6 °C 1011.7 hPa WNW 6.9 km/h 7.4 km/h 70% 0.0 mm CLR
10:00 20.4 °C 14.3 °C 1011.7 hPa West 3.2 km/h 9.7 km/h 68% 0.0 mm CLR
10:05 20.9 °C 14.3 °C 1011.7 hPa South 4.7 km/h 8.4 km/h 66% 0.0 mm CLR
10:10 21.2 °C 14.1 °C 1011.7 hPa SSW 3.9 km/h 7.4 km/h 64% 0.0 mm CLR
10:15 21.6 °C 14.0 °C 1011.7 hPa SSW 3.2 km/h 9.7 km/h 62% 0.0 mm CLR
10:20 22.0 °C 13.1 °C 1011.7 hPa South 4.7 km/h 9.3 km/h 57% 0.0 mm CLR
10:25 22.4 °C 12.9 °C 1011.7 hPa SSW 3.2 km/h 11.3 km/h 55% 0.0 mm CLR
10:30 22.7 °C 12.9 °C 1011.7 hPa South 6.9 km/h 7.4 km/h 54% 0.0 mm CLR
10:35 22.9 °C 12.3 °C 1011.5 hPa SSW 8.0 km/h 11.3 km/h 51% 0.0 mm CLR
10:39 23.4 °C 12.1 °C 1011.5 hPa SE 6.4 km/h 14.8 km/h 49% 0.0 mm CLR
10:45 23.7 °C 12.1 °C 1011.5 hPa South 8.0 km/h 14.5 km/h 48% 0.0 mm CLR
10:50 23.9 °C 11.9 °C 1011.5 hPa South 8.0 km/h 14.5 km/h 47% 0.0 mm CLR
10:55 24.1 °C 12.1 °C 1011.5 hPa South 8.4 km/h 7.4 km/h 47% 0.0 mm CLR
11:00 24.4 °C 12.0 °C 1011.5 hPa South 4.8 km/h 6.4 km/h 46% 0.0 mm CLR
11:05 24.9 °C 12.2 °C 1011.7 hPa South 5.0 km/h 9.3 km/h 45% 0.0 mm CLR
11:10 25.2 °C 12.1 °C 1011.7 hPa South 3.2 km/h 7.4 km/h 44% 0.0 mm CLR
11:15 25.6 °C 12.1 °C 1011.7 hPa South 3.2 km/h 11.3 km/h 43% 0.0 mm CLR
11:20 25.7 °C 12.2 °C 1011.5 hPa South 4.8 km/h 14.5 km/h 43% 0.0 mm CLR
11:25 25.6 °C 12.1 °C 1011.5 hPa SW 5.0 km/h 11.1 km/h 43% 0.0 mm CLR
11:30 25.7 °C 12.2 °C 1011.5 hPa SW 8.0 km/h 9.7 km/h 43% 0.0 mm CLR
11:35 25.9 °C 11.6 °C 1011.4 hPa WSW 8.0 km/h 14.5 km/h 41% 0.0 mm CLR
11:40 25.9 °C 11.3 °C 1011.4 hPa West 8.0 km/h 14.5 km/h 40% 0.0 mm CLR
11:45 26.2 °C 11.5 °C 1011.4 hPa West 8.0 km/h 16.1 km/h 40% 0.0 mm CLR
11:50 26.4 °C 11.3 °C 1011.4 hPa SSW 8.7 km/h 14.8 km/h 39% 0.0 mm CLR
11:55 26.6 °C 11.1 °C 1011.4 hPa WSW 8.7 km/h 17.2 km/h 38% 0.0 mm CLR
12:00 26.7 °C 11.2 °C 1011.4 hPa WSW 11.3 km/h 22.5 km/h 38% 0.0 mm CLR
12:05 26.7 °C 11.2 °C 1011.3 hPa WSW 11.9 km/h 22.2 km/h 38% 0.0 mm CLR
12:10 26.8 °C 11.3 °C 1011.3 hPa SSW 12.2 km/h 18.5 km/h 38% 0.0 mm CLR
12:15 27.0 °C 11.4 °C 1011.3 hPa South 12.2 km/h 16.4 km/h 38% 0.0 mm CLR
12:20 27.4 °C 11.4 °C 1011.1 hPa South 11.9 km/h 11.1 km/h 37% 0.0 mm CLR
12:25 27.6 °C 11.6 °C 1011.1 hPa SW 11.9 km/h 11.1 km/h 37% 0.0 mm CLR
12:30 27.4 °C 10.6 °C 1011.1 hPa SW 11.3 km/h 20.9 km/h 35% 0.0 mm CLR
12:35 27.7 °C 11.3 °C 1010.9 hPa SW 10.3 km/h 22.2 km/h 36% 0.0 mm CLR
12:40 27.9 °C 10.1 °C 1010.9 hPa WSW 12.9 km/h 25.7 km/h 33% 0.0 mm CLR
12:45 28.2 °C 9.9 °C 1010.9 hPa South 12.2 km/h 22.2 km/h 32% 0.0 mm CLR
12:50 28.2 °C 9.9 °C 1010.6 hPa SW 12.9 km/h 27.4 km/h 32% 0.0 mm CLR
12:55 28.4 °C 10.1 °C 1010.6 hPa SSW 13.7 km/h 14.8 km/h 32% 0.0 mm CLR
13:00 28.4 °C 10.1 °C 1010.6 hPa WSW 11.3 km/h 20.9 km/h 32% 0.0 mm CLR
13:05 28.2 °C 9.9 °C 1010.6 hPa West 11.9 km/h 13.0 km/h 32% 0.0 mm CLR
13:10 28.1 °C 10.3 °C 1010.6 hPa West 11.3 km/h 17.7 km/h 33% 0.0 mm CLR
13:15 28.2 °C 9.9 °C 1010.6 hPa West 11.3 km/h 22.5 km/h 32% 0.0 mm CLR
13:20 28.3 °C 10.0 °C 1010.4 hPa West 12.9 km/h 24.1 km/h 32% 0.0 mm CLR
13:25 28.3 °C 10.0 °C 1010.4 hPa West 12.2 km/h 16.7 km/h 32% 0.0 mm CLR
13:30 28.4 °C 10.1 °C 1010.4 hPa WNW 12.2 km/h 16.7 km/h 32% 0.0 mm CLR
13:35 28.4 °C 10.1 °C 1010.0 hPa West 12.2 km/h 14.8 km/h 32% 0.0 mm CLR
13:40 28.6 °C 10.3 °C 1010.0 hPa West 11.1 km/h 13.0 km/h 32% 0.0 mm CLR
13:45 28.6 °C 10.3 °C 1010.0 hPa WSW 11.1 km/h 20.4 km/h 32% 0.0 mm CLR
13:50 28.4 °C 10.1 °C 1009.9 hPa NW 10.3 km/h 20.4 km/h 32% 0.0 mm CLR
13:55 28.6 °C 9.8 °C 1009.9 hPa WNW 10.3 km/h 11.1 km/h 31% 0.0 mm CLR
14:00 28.7 °C 9.9 °C 1009.9 hPa NW 9.7 km/h 14.5 km/h 31% 0.0 mm CLR
14:05 28.8 °C 10.0 °C 1009.9 hPa NW 10.0 km/h 16.7 km/h 31% 0.0 mm CLR
14:10 28.8 °C 10.0 °C 1009.9 hPa WNW 13.0 km/h 18.5 km/h 31% 0.0 mm CLR
14:15 28.9 °C 10.1 °C 1009.9 hPa NW 13.0 km/h 18.5 km/h 31% 0.0 mm CLR
14:20 29.1 °C 10.2 °C 1009.6 hPa NW 11.3 km/h 24.1 km/h 31% 0.0 mm CLR
14:25 29.1 °C 9.8 °C 1009.6 hPa West 11.9 km/h 22.2 km/h 30% 0.0 mm CLR
14:30 29.0 °C 10.2 °C 1009.6 hPa NW 15.6 km/h 16.7 km/h 31% 0.0 mm CLR
14:35 29.2 °C 10.3 °C 1009.6 hPa WNW 15.6 km/h 24.1 km/h 31% 0.0 mm CLR
14:40 29.2 °C 9.8 °C 1009.6 hPa West 11.9 km/h 24.1 km/h 30% 0.0 mm CLR
14:45 29.1 °C 10.2 °C 1009.6 hPa NNW 11.9 km/h 19.0 km/h 31% 0.0 mm CLR
14:50 29.3 °C 10.4 °C 1009.3 hPa WNW 11.3 km/h 22.5 km/h 31% 0.0 mm CLR
14:55 29.4 °C 11.0 °C 1009.3 hPa WNW 11.9 km/h 14.8 km/h 32% 0.0 mm CLR
15:00 29.6 °C 10.7 °C 1009.3 hPa WNW 11.3 km/h 19.3 km/h 31% 0.0 mm CLR
15:05 29.7 °C 10.8 °C 1009.2 hPa WNW 11.3 km/h 17.7 km/h 31% 0.0 mm CLR
15:10 29.7 °C 10.2 °C 1009.2 hPa WNW 9.7 km/h 20.9 km/h 30% 0.0 mm CLR
15:15 29.7 °C 10.3 °C 1009.2 hPa SW 10.0 km/h 7.4 km/h 30% 0.0 mm CLR
15:20 29.8 °C 10.3 °C 1009.0 hPa West 8.0 km/h 17.7 km/h 30% 0.0 mm CLR
15:25 30.0 °C 10.6 °C 1009.0 hPa WSW 8.4 km/h 13.0 km/h 30% 0.0 mm CLR
15:30 29.9 °C 10.4 °C 1009.0 hPa North 10.0 km/h 13.0 km/h 30% 0.0 mm CLR
15:35 30.1 °C 10.6 °C 1008.8 hPa NW 10.0 km/h 18.3 km/h 30% 0.0 mm CLR
15:40 30.1 °C 10.6 °C 1008.8 hPa WSW 10.0 km/h 15.6 km/h 30% 0.0 mm CLR
15:45 30.1 °C 10.6 °C 1008.8 hPa NW 10.0 km/h 25.9 km/h 30% 0.0 mm CLR
15:50 30.1 °C 11.1 °C 1008.6 hPa West 12.2 km/h 14.8 km/h 31% 0.0 mm CLR
15:55 30.3 °C 10.3 °C 1008.6 hPa SW 12.2 km/h 20.4 km/h 29% 0.0 mm CLR
16:00 30.2 °C 10.2 °C 1008.6 hPa WSW 9.7 km/h 20.9 km/h 29% 0.0 mm CLR
16:05 30.4 °C 10.8 °C 1008.6 hPa SW 9.7 km/h 17.7 km/h 30% 0.0 mm CLR
16:10 30.6 °C 11.1 °C 1008.6 hPa NW 6.4 km/h 7.4 km/h 30% 0.0 mm CLR
16:15 30.7 °C 10.6 °C 1008.6 hPa WNW 6.4 km/h 11.1 km/h 29% 0.0 mm CLR
16:20 30.6 °C 10.6 °C 1008.3 hPa WNW 8.0 km/h 19.3 km/h 29% 0.0 mm CLR
16:25 30.4 °C 10.4 °C 1008.3 hPa NNW 6.9 km/h 14.8 km/h 29% 0.0 mm CLR
16:30 30.4 °C 10.9 °C 1008.3 hPa WNW 9.7 km/h 22.5 km/h 30% 0.0 mm CLR
16:35 30.4 °C 10.9 °C 1008.1 hPa WNW 9.7 km/h 19.3 km/h 30% 0.0 mm CLR
16:40 30.4 °C 10.4 °C 1008.1 hPa WNW 10.3 km/h 9.5 km/h 29% 0.0 mm CLR
16:45 30.6 °C 10.6 °C 1008.1 hPa ENE 10.3 km/h 9.3 km/h 29% 0.0 mm CLR
16:50 30.6 °C 11.1 °C 1008.0 hPa SSE 5.8 km/h 8.4 km/h 30% 0.0 mm CLR
16:55 30.7 °C 11.6 °C 1008.0 hPa South 5.8 km/h 9.5 km/h 31% 0.0 mm CLR
17:00 30.7 °C 12.6 °C 1008.0 hPa South 8.0 km/h 11.3 km/h 33% 0.0 mm CLR
17:05 30.7 °C 12.1 °C 1007.8 hPa SE 6.9 km/h 11.1 km/h 32% 0.0 mm CLR
17:10 30.7 °C 12.1 °C 1007.8 hPa SSW 4.8 km/h 11.3 km/h 32% 0.0 mm CLR
17:15 30.6 °C 12.0 °C 1007.8 hPa SSE 5.0 km/h 16.7 km/h 32% 0.0 mm CLR
17:20 30.4 °C 11.8 °C 1007.6 hPa SE 11.3 km/h 22.5 km/h 32% 0.0 mm CLR
17:25 30.3 °C 12.2 °C 1007.6 hPa SSE 11.3 km/h 20.9 km/h 33% 0.0 mm CLR
17:30 30.3 °C 12.2 °C 1007.6 hPa SSE 11.3 km/h 20.9 km/h 33% 0.0 mm CLR
17:35 30.5 °C 12.4 °C 1007.7 hPa South 11.3 km/h 19.3 km/h 33% 0.0 mm CLR
17:40 30.5 °C 12.4 °C 1007.7 hPa SSW 10.0 km/h 9.3 km/h 33% 0.0 mm CLR
17:45 30.7 °C 12.6 °C 1007.7 hPa SSW 9.7 km/h 12.9 km/h 33% 0.0 mm CLR
17:50 30.5 °C 10.9 °C 1007.9 hPa WSW 8.4 km/h 14.8 km/h 30% 0.0 mm CLR
17:55 30.6 °C 11.6 °C 1007.9 hPa WNW 8.4 km/h 16.7 km/h 31% 0.0 mm CLR
18:00 30.7 °C 11.1 °C 1007.9 hPa NW 11.3 km/h 22.5 km/h 30% 0.0 mm CLR
18:05 30.7 °C 11.1 °C 1007.8 hPa NW 10.3 km/h 25.9 km/h 30% 0.0 mm CLR
18:10 30.6 °C 11.1 °C 1007.8 hPa NW 14.0 km/h 24.1 km/h 30% 0.0 mm CLR
18:15 30.3 °C 10.8 °C 1007.8 hPa NW 14.0 km/h 29.6 km/h 30% 0.0 mm CLR
18:20 30.2 °C 10.7 °C 1007.8 hPa West 19.0 km/h 29.6 km/h 30% 0.0 mm CLR
18:25 30.2 °C 11.2 °C 1007.8 hPa NW 19.0 km/h 25.9 km/h 31% 0.0 mm CLR
18:30 30.1 °C 11.6 °C 1007.8 hPa NNW 18.3 km/h 27.8 km/h 32% 0.0 mm CLR
18:35 29.9 °C 11.4 °C 1007.8 hPa NW 19.3 km/h 30.6 km/h 32% 0.0 mm CLR
18:40 29.7 °C 11.2 °C 1007.8 hPa WNW 18.0 km/h 29.6 km/h 32% 0.0 mm CLR
18:45 29.7 °C 11.7 °C 1007.8 hPa NW 18.0 km/h 31.5 km/h 33% 0.0 mm CLR
18:50 29.4 °C 11.4 °C 1007.8 hPa NW 18.3 km/h 25.9 km/h 33% 0.0 mm CLR
18:55 29.5 °C 12.0 °C 1007.8 hPa West 18.3 km/h 22.5 km/h 34% 0.0 mm CLR
19:00 29.4 °C 11.4 °C 1007.8 hPa NW 16.1 km/h 33.8 km/h 33% 0.0 mm CLR
19:05 29.2 °C 11.3 °C 1008.0 hPa NW 16.1 km/h 33.8 km/h 33% 0.0 mm CLR
19:10 29.2 °C 11.7 °C 1008.0 hPa West 18.0 km/h 35.2 km/h 34% 0.0 mm CLR
19:15 28.8 °C 11.4 °C 1008.0 hPa WNW 18.0 km/h 35.2 km/h 34% 0.0 mm CLR
19:19 28.8 °C 11.4 °C 1007.9 hPa NW 22.5 km/h 35.2 km/h 34% 0.0 mm CLR
19:25 28.7 °C 11.7 °C 1007.9 hPa WNW 22.5 km/h 25.9 km/h 35% 0.0 mm CLR
19:30 28.7 °C 11.7 °C 1007.9 hPa NNW 19.8 km/h 20.4 km/h 35% 0.0 mm CLR
19:35 28.7 °C 11.3 °C 1008.0 hPa NW 20.9 km/h 33.8 km/h 34% 0.0 mm CLR
19:40 28.6 °C 11.2 °C 1008.0 hPa WNW 16.1 km/h 29.6 km/h 34% 0.0 mm CLR
19:45 28.5 °C 11.1 °C 1008.0 hPa NW 16.1 km/h 16.7 km/h 34% 0.0 mm CLR
19:50 28.3 °C 10.9 °C 1008.2 hPa WNW 15.6 km/h 22.2 km/h 34% 0.0 mm CLR
19:55 28.2 °C 11.3 °C 1008.2 hPa NW 15.6 km/h 13.0 km/h 35% 0.0 mm CLR
20:00 28.1 °C 11.2 °C 1008.2 hPa NW 12.9 km/h 22.5 km/h 35% 0.0 mm CLR
20:05 28.0 °C 11.1 °C 1008.1 hPa WNW 13.0 km/h 18.5 km/h 35% 0.0 mm CLR
20:10 27.8 °C 10.9 °C 1008.1 hPa North 14.0 km/h 29.6 km/h 35% 0.0 mm CLR
20:15 27.6 °C 11.2 °C 1008.1 hPa WNW 14.0 km/h 27.8 km/h 36% 0.0 mm CLR
20:20 27.4 °C 11.0 °C 1008.4 hPa NW 19.0 km/h 31.5 km/h 36% 0.0 mm CLR
20:25 27.2 °C 11.2 °C 1008.4 hPa WNW 19.0 km/h 31.5 km/h 37% 0.0 mm CLR
20:30 27.1 °C 11.2 °C 1008.4 hPa WNW 22.5 km/h 25.7 km/h 37% 0.0 mm CLR
20:35 26.9 °C 11.4 °C 1008.6 hPa NNW 21.7 km/h 27.8 km/h 38% 0.0 mm CLR
20:40 26.7 °C 11.2 °C 1008.6 hPa NNW 18.3 km/h 24.1 km/h 38% 0.0 mm CLR
20:45 26.6 °C 11.5 °C 1008.6 hPa WNW 18.3 km/h 27.8 km/h 39% 0.0 mm CLR
20:50 26.4 °C 11.3 °C 1008.9 hPa WNW 16.4 km/h 24.1 km/h 39% 0.0 mm CLR
20:55 26.3 °C 11.6 °C 1008.9 hPa WNW 16.4 km/h 25.9 km/h 40% 0.0 mm CLR
21:00 26.2 °C 11.6 °C 1008.9 hPa WNW 16.1 km/h 37.0 km/h 40% 0.0 mm CLR
21:05 26.1 °C 11.4 °C 1008.9 hPa WNW 16.1 km/h 37.0 km/h 40% 0.0 mm CLR
21:10 26.1 °C 11.4 °C 1008.9 hPa WNW 21.7 km/h 33.3 km/h 40% 0.0 mm CLR
21:15 26.1 °C 11.4 °C 1008.9 hPa WNW 21.7 km/h 33.3 km/h 40% 0.0 mm CLR
21:20 26.0 °C 11.3 °C 1009.1 hPa WNW 20.9 km/h 38.9 km/h 40% 0.0 mm CLR
21:25 26.0 °C 11.3 °C 1009.1 hPa West 20.9 km/h 31.5 km/h 40% 0.0 mm CLR
21:30 26.0 °C 11.3 °C 1009.1 hPa WNW 22.5 km/h 27.8 km/h 40% 0.0 mm CLR
21:35 25.9 °C 11.6 °C 1009.2 hPa West 22.5 km/h 27.8 km/h 41% 0.0 mm CLR
21:40 25.9 °C 11.6 °C 1009.2 hPa WNW 19.8 km/h 27.8 km/h 41% 0.0 mm CLR
21:45 25.8 °C 11.6 °C 1009.2 hPa West 19.8 km/h 25.9 km/h 41% 0.0 mm CLR
21:50 25.8 °C 11.6 °C 1009.6 hPa West 17.2 km/h 22.2 km/h 41% 0.0 mm CLR
21:55 25.7 °C 11.4 °C 1009.6 hPa West 17.2 km/h 13.0 km/h 41% 0.0 mm CLR
22:00 25.7 °C 11.8 °C 1009.6 hPa WNW 12.9 km/h 22.5 km/h 42% 0.0 mm CLR
22:05 25.6 °C 11.7 °C 1009.8 hPa West 12.2 km/h 11.1 km/h 42% 0.0 mm CLR
22:10 25.5 °C 11.7 °C 1009.8 hPa West 8.0 km/h 16.1 km/h 42% 0.0 mm CLR
22:15 25.4 °C 11.6 °C 1009.8 hPa WSW 8.0 km/h 12.9 km/h 42% 0.0 mm CLR
22:20 25.4 °C 11.6 °C 1010.1 hPa South 6.4 km/h 5.6 km/h 42% 0.0 mm CLR
22:25 25.3 °C 11.4 °C 1010.1 hPa SW 6.4 km/h 7.4 km/h 42% 0.0 mm CLR
22:30 25.4 °C 11.6 °C 1010.1 hPa WSW 4.7 km/h 5.6 km/h 42% 0.0 mm CLR
22:35 25.5 °C 11.7 °C 1010.1 hPa SSE 4.7 km/h 9.3 km/h 42% 0.0 mm CLR
22:40 25.6 °C 11.7 °C 1010.1 hPa NW 5.0 km/h 9.3 km/h 42% 0.0 mm CLR
22:45 25.6 °C 11.7 °C 1010.1 hPa NW 5.0 km/h 9.5 km/h 42% 0.0 mm CLR
22:50 25.5 °C 11.7 °C 1010.2 hPa NNW 5.8 km/h 5.6 km/h 42% 0.0 mm CLR
22:55 25.4 °C 11.6 °C 1010.2 hPa NW 5.8 km/h 7.4 km/h 42% 0.0 mm CLR
23:00 25.4 °C 11.6 °C 1010.2 hPa NNW 3.2 km/h 8.0 km/h 42% 0.0 mm CLR
23:05 25.3 °C 11.8 °C 1010.2 hPa SE 3.9 km/h 11.1 km/h 43% 0.0 mm CLR
23:10 25.3 °C 11.4 °C 1010.2 hPa SW 6.4 km/h 9.3 km/h 42% 0.0 mm CLR
23:15 25.2 °C 11.4 °C 1010.2 hPa SW 6.4 km/h 9.3 km/h 42% 0.0 mm CLR
23:20 25.2 °C 11.7 °C 1010.3 hPa WSW 4.8 km/h 11.3 km/h 43% 0.0 mm CLR
23:25 25.1 °C 11.6 °C 1010.3 hPa SSW 5.8 km/h 7.4 km/h 43% 0.0 mm CLR
23:30 24.9 °C 11.4 °C 1010.3 hPa SW 5.8 km/h 9.3 km/h 43% 0.0 mm CLR
23:35 24.8 °C 11.7 °C 1010.4 hPa SSW 5.8 km/h 3.7 km/h 44% 0.0 mm CLR
23:40 24.8 °C 11.7 °C 1010.4 hPa WSW 5.0 km/h 7.6 km/h 44% 0.0 mm CLR
23:45 24.7 °C 11.6 °C 1010.4 hPa WSW 5.0 km/h 6.4 km/h 44% 0.0 mm CLR
23:50 24.7 °C 11.6 °C 1010.4 hPa West 5.0 km/h 9.3 km/h 44% 0.0 mm CLR
23:55 24.6 °C 11.9 °C 1010.4 hPa West 5.0 km/h 9.3 km/h 45% 0.0 mm CLR
Murcia-Puente Tocinos, España
Compliments of Weather Underground - 2.75 mb

La estación de MeteoMurcia.com, publica sus datos en los siguientes proyectos:

Weather Underground PWS IMURCIAP2 Meteoclimatic www.awekas.at

W3Counter
Web Analytics